• Join FlightAware (Why Join?)
  • Login
  • US Flag 
04:34AM EDT


 

Airport Tracker/Info


-or-


 

Live Flight TrackerFlight Track Log ✈ AVN11 ✈ 04-Oct-2013 ✈ YSSY / SYD - NVVV / VLI

Flight Track Log - Related Links

Times and Time Zones

All times are in EDT time to prevent confusion due to time zone crossing. See the AVN11 flight status page for this flight to view local times or setup timezone preferences in your user account.

Time Position Orientation Groundspeed Altitude Reporting Facility
EDT Latitude Longitude Course Direction KTS MPH feet Rate Location/Type
09:22PM -33.9551 151.1897 109° East 90 104  Level FlightAware ADS-B (YRAY)
09:22PM -33.9669 151.1928 168° South 155 178 900 Level FlightAware ADS-B (YRAY)
09:23PM -33.9805 151.1978 163° South 153 176 600 2,040 Climbing FlightAware ADS-B (YRAY)
09:23PM -33.9854 151.2043 132° Southeast 161 185 1,000 1,800 Climbing FlightAware ADS-B (YRAY)
09:23PM -33.9887 151.2132 114° Southeast 174 200 1,200 900 Climbing FlightAware ADS-B (YRAY)
09:23PM -33.9945 151.2278 116° Southeast 193 222 1,400 900 Climbing FlightAware ADS-B
09:23PM -33.9966 151.2318 122° Southeast 205 236 1,500 2,040 Climbing FlightAware ADS-B (YRAY)
09:24PM -33.9979 151.2340 125° Southeast 211 243 2,600 1,920 Climbing FlightAware ADS-B
09:24PM -33.9979 151.2340 125° Southeast 215 247 3,000 1,560 Climbing FlightAware ADS-B
09:24PM -34.0360 151.2730 140° Southeast 213 245 3,200 1,500 Climbing FlightAware ADS-B
09:24PM -34.0431 151.2812 136° Southeast 235 270 3,500 1,320 Climbing FlightAware ADS-B
09:24PM -34.0485 151.2940 117° Southeast 249 287 3,700 1,200 Climbing FlightAware ADS-B
09:25PM -34.0497 151.3112 95° East 263 303 3,900 900 Climbing FlightAware ADS-B
09:25PM -34.0472 151.3242 77° East 280 322 4,000 1,020 Climbing FlightAware ADS-B
09:25PM -34.0388 151.3538 71° East 310 357 4,400 1,140 Climbing FlightAware ADS-B
09:25PM -34.0328 151.3741 70° East 319 367 4,600 1,860 Climbing FlightAware ADS-B
09:26PM -34.0260 151.4015 73° East 329 379 5,400 2,100 Climbing FlightAware ADS-B
09:26PM -34.0187 151.4437 78° East 336 387 6,000 2,280 Climbing FlightAware ADS-B
09:26PM -34.0119 151.4843 79° East 347 399 7,000 3,120 Climbing FlightAware ADS-B
09:27PM -34.0078 151.5092 79° East 346 398 7,800 2,220 Climbing FlightAware ADS-B
09:27PM -34.0008 151.5487 78° East 351 404 8,300 1,800 Climbing FlightAware ADS-B
09:27PM -33.9926 151.5925 77° East 353 406 9,100 3,120 Climbing FlightAware ADS-B
09:27PM -33.9913 151.5995 77° East 356 410 9,500 2,640 Climbing FlightAware ADS-B
09:28PM -33.9794 151.6645 78° East 353 406 10,800 2,100 Climbing FlightAware ADS-B
09:28PM -33.9690 151.7250 78° East 358 412 11,900 2,160 Climbing FlightAware
09:29PM -33.9634 151.7566 78° East 356 410 12,500 2,340 Climbing FlightAware ADS-B
09:29PM -33.9510 151.8257 78° East 366 421 13,800 1,920 Climbing Aus ATC (RADAR)
09:30PM -33.9440 151.8670 78° East 383 441 14,300 2,100 Climbing FlightAware
09:30PM -33.9342 151.9188 77° East 389 448 15,400 2,640 Climbing FlightAware ADS-B
09:31PM -33.9190 152.0041 77° East 392 451 17,100 1,920 Climbing Aus ATC (RADAR)
09:31PM -33.9180 152.0060 77° East 398 458 16,800 600 Descending FlightAware
09:31PM -33.9114 152.0455 79° East 408 470 17,300 1,680 Climbing FlightAware ADS-B
09:32PM -33.9061 152.1534 79° East 410 472 18,600 1,380 Climbing Aus ATC (RADAR)
09:32PM -33.9070 152.1670 79° East 421 484 18,600 1,620 Level FlightAware
09:32PM -33.9080 152.2510 91° East 426 490 19,800 2,160 Climbing FlightAware
09:33PM -33.9091 152.3297 91° East 418 481 21,000 1,740 Climbing Aus ATC (RADAR)
09:33PM -33.9080 152.3230 91° East 432 497 20,700 1,500 Descending FlightAware
09:34PM -33.9091 152.4152 91° East 427 491 21,900 1,620 Climbing Aus ATC (RADAR)
09:34PM -33.9090 152.4130 91° East 441 507 21,700 1,080 Descending FlightAware
09:34PM -33.9090 152.5000 90° East 447 514 22,600 1,500 Climbing FlightAware
09:35PM -33.9100 152.5690 91° East 451 519 23,300 1,260 Climbing FlightAware
09:36PM -33.9010 152.7250 86° East 476 548 24,500 1,140 Climbing FlightAware
09:36PM -33.8740 152.8090 69° East 492 566 25,100 1,080 Climbing FlightAware
09:37PM -33.8400 152.9010 66° East 502 578 25,800 1,080 Climbing FlightAware
09:37PM -33.8100 152.9890 68° East 507 583 26,400 1,080 Climbing FlightAware
09:38PM -33.7770 153.0840 67° East 511 588 27,100 1,320 Climbing FlightAware
09:39PM -33.7460 153.1710 67° East 509 586 28,000 1,380 Climbing FlightAware
09:39PM -33.7170 153.2550 67° East 509 586 28,700 960 Climbing FlightAware
09:40PM -33.6800 153.3600 67° East 517 595 29,200 960 Climbing FlightAware
09:40PM -33.6460 153.4530 66° East 519 597 29,900 1,380 Climbing FlightAware
09:41PM -33.6084 153.5601 66° East 504 580 30,900 1,200 Climbing Aus ATC (RADAR)
09:41PM -33.6090 153.5590 66° East 518 596 30,700 780 Descending FlightAware
09:42PM -33.5760 153.6520 67° East 516 594 31,400 1,260 Climbing FlightAware
09:42PM -33.5390 153.7550 67° East 511 588 32,300 1,380 Climbing FlightAware
09:43PM -33.5061 153.8476 67° East 495 570 33,100 1,020 Climbing Aus ATC (RADAR)
09:43PM -33.5090 153.8400 67° East 510 587 32,900 1,020 Descending FlightAware
09:43PM -33.4743 153.9392 67° East 496 571 33,700 900 Climbing Aus ATC (RADAR)
09:44PM -33.4650 153.9620 67° East 512 589 33,600 240 Descending FlightAware
09:44PM -33.4360 154.0440 67° East 517 595 33,900 600 Climbing FlightAware
09:45PM -33.3980 154.1490 67° East 522 601 34,300 540 Climbing FlightAware
09:45PM -33.3680 154.2300 66° East 525 604 34,600 900 Climbing FlightAware
09:46PM -33.3297 154.3352 66° East 507 583 35,300 480 Climbing Aus ATC (RADAR)
09:46PM -33.3220 154.3580 66° East 527 606 35,000 -420 Descending FlightAware
09:47PM -33.2980 154.4230 66° East 528 608 35,000  Level FlightAware
09:47PM -33.2550 154.5340 65° Northeast 532 612 35,000  Level FlightAware
09:47PM -33.2310 154.5740 54° Northeast 546 628 35,000  Level FlightAware
09:48PM -33.1790 154.6450 49° Northeast 546 628 35,000  Level FlightAware
09:49PM -33.1280 154.7150 49° Northeast 546 628 35,000 120 Level FlightAware
09:49PM -33.0072 154.7952 49° Northeast 543 625 35,200  Climbing Aus ATC (RADAR)
09:49PM -33.0770 154.7840 49° Northeast 546 628 35,000  Descending FlightAware
09:50PM -32.9447 154.8681 49° Northeast 532 612 35,200  Climbing Aus ATC (RADAR)
09:50PM -32.9530 154.8590 49° Northeast 546 628 35,000 -360 Descending FlightAware
09:50PM -32.9000 154.9190 44° Northeast 546 628 35,000 60 Level FlightAware
09:51PM -32.8265 155.0042 44° Northeast 533 613 35,100  Climbing Aus ATC (RADAR)
09:51PM -32.8210 155.0100 44° Northeast 546 628 35,000 -180 Descending FlightAware
09:52PM -32.7680 155.0720 45° Northeast 546 628 35,000  Level FlightAware
09:52PM -32.6930 155.1550 43° Northeast 547 629 35,000  Level FlightAware
09:53PM -32.6180 155.2420 44° Northeast 548 631 35,000  Level FlightAware
09:53PM -32.5660 155.3000 43° Northeast 549 632 35,000  Level FlightAware
09:54PM -32.5060 155.3670 43° Northeast 549 632 35,000  Level FlightAware
09:55PM -32.4120 155.4730 44° Northeast 553 636 35,000  Level FlightAware
09:55PM -32.3460 155.5470 43° Northeast 554 638 35,000  Level FlightAware
09:56PM -32.2860 155.6130 43° Northeast 554 638 35,000  Level FlightAware
09:57PM -32.2280 155.6770 43° Northeast 554 638 35,000  Level FlightAware
09:57PM -32.1710 155.7400 43° Northeast 554 638 35,000  Level FlightAware
09:58PM -32.1170 155.8000 43° Northeast 554 638 35,000  Level FlightAware
09:58PM -32.0600 155.8630 43° Northeast 554 638 35,000  Level FlightAware
09:59PM -32.0010 155.9270 43° Northeast 554 638 35,000  Level FlightAware
10:00PM -31.9420 155.9920 43° Northeast 554 638 35,000  Level FlightAware
10:00PM -31.8840 156.0550 43° Northeast 554 638 35,000  Level FlightAware
10:01PM -31.8270 156.1180 43° Northeast 554 638 35,000  Level FlightAware
10:01PM -31.7700 156.1810 43° Northeast 554 638 35,000  Level FlightAware
10:02PM -31.7120 156.2440 43° Northeast 554 638 35,000 -120 Level FlightAware
10:03PM -31.5318 156.4487 43° Northeast 561 646 34,900  Descending Aus ATC (RADAR)
10:03PM -31.6550 156.3070 43° Northeast 554 638 35,000 120 Climbing FlightAware
10:03PM -31.5970 156.3700 43° Northeast 554 638 35,000  Level FlightAware
10:04PM -31.5390 156.4340 43° Northeast 554 638 35,000  Level FlightAware
10:04PM -31.4810 156.4970 43° Northeast 554 638 35,000 -120 Level FlightAware
10:05PM -31.2483 156.7576 43° Northeast 557 641 34,900  Descending Aus ATC (RADAR)
10:05PM -31.4240 156.5600 43° Northeast 554 638 35,000  Climbing FlightAware
10:06PM -31.1822 156.8288 43° Northeast 556 640 34,900 -60 Descending Aus ATC (RADAR)
10:07PM -31.0211 157.0031 43° Northeast 558 642 34,900  Level Aus ATC (RADAR)
10:09PM -30.7947 157.2457 43° Northeast 549 632 34,900  Level Aus ATC (RADAR)
10:09PM -30.7492 157.2950 43° Northeast 545 627 34,900  Level Aus ATC (RADAR)
10:10PM -30.6847 157.3643 43° Northeast 542 624 34,900  Level Aus ATC (RADAR)
10:11PM -30.5803 157.4752 42° Northeast 548 631 34,900  Level Aus ATC (RADAR)
10:12PM -30.5146 157.5443 42° Northeast 549 632 34,900  Level Aus ATC (RADAR)
10:12PM -30.5052 157.5539 42° Northeast 549 632 34,900  Level Aus ATC (RADAR)
10:17PM -29.9970 158.0886 39° Northeast 35,000  Climbing Aus ATC (Calculated)
10:19PM -29.8045 158.2713 39° Northeast  Level Estimated
10:20PM -29.7039 158.3663 39° Northeast  Level Estimated
10:21PM -29.6033 158.4611 39° Northeast  Level Estimated
10:22PM -29.5027 158.5557 39° Northeast  Level Estimated
10:22PM -29.4958 158.6084 39° Northeast 35,000  Level Aus ATC (Calculated)
10:24PM -29.3012 158.7897 39° Northeast  Level Estimated
10:25PM -29.1996 158.8840 39° Northeast  Level Estimated
10:25PM -29.1483 158.9647 13° North 35,000  Level Aus ATC (Calculated)
10:26PM -29.0979 158.9781 39° Northeast  Level Estimated
10:27PM -29.0158 159.0866 39° Northeast  Level Estimated
10:27PM -29.0199 159.0954 35° Northeast 35,000  Level Aus ATC (Calculated)
10:28PM -28.9138 159.1802 39° Northeast  Level Estimated
10:29PM -28.8232 159.2755 39° Northeast  Level Estimated
10:30PM -28.7204 159.3692 39° Northeast  Level Estimated
10:31PM -28.6176 159.4627 39° Northeast  Level Estimated
10:32PM -28.5147 159.5560 39° Northeast  Level Estimated
10:32PM -28.5211 159.5991 41° Northeast 35,000  Level Aus ATC (Calculated)
10:32PM -28.4665 159.6539 38° Northeast 35,000  Level Aus ATC (Calculated)
10:34PM -28.3460 159.7620 38° Northeast  Level Estimated
10:35PM -28.2427 159.8545 38° Northeast  Level Estimated
10:36PM -28.1394 159.9467 38° Northeast  Level Estimated
10:37PM -28.0359 160.0389 38° Northeast  Level Estimated
10:37PM -27.9930 160.1253 41° Northeast 35,000  Level Aus ATC (Calculated)
10:38PM -27.8997 160.2175 41° Northeast 35,000  Level Aus ATC (Calculated)
10:39PM -27.7189 160.3956 329° Northwest 35,000  Level Aus ATC (Calculated)
10:40PM -27.7065 160.3871 38° Northeast  Level Estimated
10:41PM -27.5848 160.5126 38° Northeast  Level Estimated
10:41PM -27.5512 160.5600 41° Northeast 35,000  Level Aus ATC (Calculated)
10:42PM -27.4316 160.6768 28° Northeast 35,000  Level Aus ATC (Calculated)
10:43PM -27.3814 160.7071 38° Northeast  Level Estimated
10:44PM -27.2723 160.8143 37° Northeast  Level Estimated
10:45PM -27.1660 160.9057 37° Northeast  Level Estimated
10:45PM -27.1713 160.9300 37° Northeast 35,000  Level Aus ATC (Calculated)
10:47PM -26.9653 161.1058 37° Northeast  Level Estimated
10:47PM -26.9096 161.1829 41° Northeast 35,000  Level Aus ATC (Calculated)
10:48PM -26.8496 161.2406 35° Northeast 35,000  Level Aus ATC (Calculated)
10:49PM -26.7511 161.3168 37° Northeast  Level Estimated
10:49PM -26.7334 161.3522 28° Northeast 35,000  Level Aus ATC (Calculated)
10:50PM -26.6786 161.3848 37° Northeast  Level Estimated
10:51PM -26.5871 161.4750 37° Northeast  Level Estimated
10:52PM -26.4800 161.5647 37° Northeast  Level Estimated
10:53PM -26.3729 161.6542 37° Northeast  Level Estimated
10:54PM -26.2657 161.7435 37° Northeast  Level Estimated
10:55PM -26.1584 161.8327 37° Northeast  Level Estimated
10:56PM -26.0511 161.9217 37° Northeast  Level Estimated
10:57PM -25.9437 162.0105 37° Northeast  Level Estimated
10:57PM -25.9686 162.0791 36° Northeast 35,000  Level Aus ATC (Calculated)
10:59PM -25.7544 162.2532 36° Northeast  Level Estimated
11:00PM -25.6463 162.3408 36° Northeast  Level Estimated
11:01PM -25.5382 162.4282 36° Northeast  Level Estimated
11:02PM -25.4300 162.5154 36° Northeast  Level Estimated
11:03PM -25.3218 162.6025 36° Northeast  Level Estimated
11:04PM -25.2135 162.6895 36° Northeast  Level Estimated
11:05PM -25.1052 162.7763 36° Northeast  Level Estimated
11:06PM -24.9968 162.8629 36° Northeast  Level Estimated
11:07PM -24.8883 162.9494 36° Northeast  Level Estimated
11:08PM -24.7798 163.0357 36° Northeast  Level Estimated
11:09PM -24.6713 163.1219 36° Northeast  Level Estimated
11:10PM -24.5627 163.2079 36° Northeast  Level Estimated
11:11PM -24.4541 163.2938 36° Northeast  Level Estimated
11:12PM -24.3454 163.3795 36° Northeast  Level Estimated
11:13PM -24.2367 163.4651 36° Northeast  Level Estimated
11:14PM -24.1279 163.5506 36° Northeast  Level Estimated
11:15PM -24.0191 163.6358 36° Northeast  Level Estimated
11:16PM -23.9102 163.7210 36° Northeast  Level Estimated
11:17PM -23.8013 163.8060 36° Northeast  Level Estimated
11:18PM -23.6923 163.8909 36° Northeast  Level Estimated
11:19PM -23.5833 163.9756 35° Northeast  Level Estimated
11:20PM -23.4743 164.0602 35° Northeast  Level Estimated
11:21PM -23.3652 164.1446 35° Northeast  Level Estimated
11:22PM -23.2560 164.2289 35° Northeast  Level Estimated
11:23PM -23.1468 164.3131 35° Northeast  Level Estimated
11:24PM -23.0376 164.3971 35° Northeast  Level Estimated
11:25PM -22.9283 164.4810 35° Northeast  Level Estimated
11:26PM -22.8190 164.5647 35° Northeast  Level Estimated
11:27PM -22.7096 164.6484 35° Northeast  Level Estimated
11:28PM -22.6002 164.7319 35° Northeast  Level Estimated
11:29PM -22.4907 164.8152 35° Northeast  Level Estimated
11:30PM -22.3812 164.8984 35° Northeast  Level Estimated
11:31PM -22.2717 164.9815 35° Northeast  Level Estimated
11:32PM -22.1621 165.0645 35° Northeast  Level Estimated
11:33PM -22.0525 165.1473 35° Northeast  Level Estimated
11:34PM -21.9428 165.2300 35° Northeast  Level Estimated
11:35PM -21.8331 165.3126 35° Northeast  Level Estimated
11:36PM -21.7234 165.3950 35° Northeast  Level Estimated
11:37PM -21.6136 165.4774 35° Northeast  Level Estimated
11:38PM -21.5037 165.5596 35° Northeast  Level Estimated
11:39PM -21.3939 165.6416 35° Northeast  Level Estimated
11:40PM -21.2840 165.7236 35° Northeast  Level Estimated
11:41PM -21.1740 165.8054 35° Northeast  Level Estimated
11:42PM -21.0640 165.8871 35° Northeast  Level Estimated
11:43PM -20.9540 165.9687 35° Northeast  Level Estimated
11:44PM -20.8439 166.0502 35° Northeast  Level Estimated
11:45PM -20.7338 166.1315 35° Northeast  Level Estimated
11:46PM -20.6237 166.2128 35° Northeast  Level Estimated
11:47PM -20.5135 166.2939 35° Northeast  Level Estimated
11:48PM -20.4033 166.3749 35° Northeast  Level Estimated
11:49PM -20.2930 166.4557 35° Northeast  Level Estimated
11:50PM -20.1827 166.5365 35° Northeast  Level Estimated
11:51PM -20.0724 166.6172 34° Northeast  Level Estimated
11:52PM -19.9620 166.6977 34° Northeast  Level Estimated
11:53PM -19.8516 166.7781 34° Northeast  Level Estimated
11:54PM -19.7412 166.8584 34° Northeast  Level Estimated
11:55PM -19.6307 166.9386 34° Northeast  Level Estimated
11:56PM -19.5202 167.0187 34° Northeast  Level Estimated
11:57PM -19.4097 167.0987 34° Northeast  Level Estimated
11:58PM -19.2991 167.1786 34° Northeast  Level Estimated
11:59PM -19.1885 167.2584 34° Northeast  Level Estimated
12:00AM -19.0778 167.3380 34° Northeast  Level Estimated
12:01AM -18.9671 167.4176 34° Northeast  Level Estimated
12:02AM -18.8564 167.4970 34° Northeast  Level Estimated
12:03AM -18.7457 167.5764 34° Northeast  Level Estimated
12:04AM -18.6349 167.6556 34° Northeast  Level Estimated
12:05AM -18.5241 167.7347 34° Northeast  Level Estimated
12:06AM -18.4132 167.8138 34° Northeast  Level Estimated
12:07AM -18.3023 167.8927 34° Northeast  Level Estimated
12:08AM -18.1914 167.9715 34° Northeast  Level Estimated
12:09AM -18.0805 168.0502 34° Northeast  Level Estimated
12:10AM -17.9695 168.1289 34° Northeast  Level Estimated
12:11AM -17.8585 168.2074 34° Northeast  Level Estimated
12:12AM -17.7474 168.2858 34° Northeast  Level Estimated
12:13AM -17.6993 168.3198 34° Northeast  Level Estimated
12:14AM -17.6993 168.3198 37° Northeast  Level Estimated
12:15AM -17.6993 168.3198 143° Southeast  Level Estimated
12:16AM -17.6993 168.3198 37° Northeast  Level Estimated
12:17AM -17.6993 168.3198 143° Southeast  Level Estimated
12:18AM -17.6993 168.3198 37° Northeast  Level Estimated
12:19AM -17.6993 168.3198 143° Southeast  Level Estimated
12:20AM -17.6993 168.3198 37° Northeast  Level Estimated
12:21AM -17.6993 168.3198 143° Southeast  Level Estimated
12:22AM -17.6993 168.3198 37° Northeast  Level Estimated
12:23AM -17.6993 168.3198 143° Southeast  Level Estimated
12:24AM -17.6993 168.3198 37° Northeast  Level Estimated
12:25AM -17.6993 168.3198 143° Southeast  Level Estimated
12:26AM -17.6993 168.3198 37° Northeast  Level Estimated
12:27AM -17.6993 168.3198 143° Southeast  Level Estimated
12:28AM -17.6993 168.3198 37° Northeast  Level Estimated
12:29AM -17.6993 168.3198 143° Southeast  Level Estimated
12:30AM -17.6993 168.3198 37° Northeast  Level Estimated